»·PEaware :: N9572V KSJC-KOTH

N9572V :: KSJC-KOTH

FLIGHT INFORMATION

Flight Status: Arrived
Operator: Privately registered:
United States
More flights under this callsign
Pilot: Aj D. (17319)
Aircraft: CESSNA 172 SKYHAWK
(C172)
More flights by this aircraft type
Origin: KSJC Mineta San Jose Intl
United States
Destination: KOTH North Bend Mun
United States
More flights between these airports :: More routes between these airports
Route: +
File this flight plan on PilotEdge
Remarks:
Altitude:
(Current/Filed)
3,000ft
Speed:
(Current/Filed)
0kts
Departed: 06-Mar-18 01:16 PM
Arrived: 06-Mar-18 04:24 PM
Distance/Time
Traveled:
378nm/3:08
Distance/Time
To Go:
Arrived

Flight Plot

Page will automatically refresh every two minutes.

Flight plan parsing failed; only flown route is shown


Map Options




Map Legend


Flown Route
Filed Route
Departure Airport
Arrival Airport
Navaid (VOR, NDB)
Fix

Horizontal Profiles

Position Reports

Time Latitude Longitude Heading Altitude Ground
Speed
06-Mar-18 13:12 37.360935 -121.934535 134 66ft 0kts
06-Mar-18 13:13 37.360935 -121.934535 134 66ft 0kts
06-Mar-18 13:14 37.360935 -121.934535 134 66ft 0kts
06-Mar-18 13:15 37.360935 -121.934535 134 66ft 0kts
06-Mar-18 13:16 37.360935 -121.934535 134 66ft 0kts
06-Mar-18 13:17 37.360935 -121.934535 134 66ft 0kts
06-Mar-18 13:18 37.360911 -121.934505 128 66ft 1kts
06-Mar-18 13:19 37.360294 -121.931723 140 66ft 14kts
06-Mar-18 13:20 37.356778 -121.927812 138 66ft 19kts
06-Mar-18 13:21 37.355002 -121.923291 47 66ft 14kts
06-Mar-18 13:22 37.355077 -121.923188 49 66ft 0kts
06-Mar-18 13:23 37.358341 -121.925125 317 71ft 68kts
06-Mar-18 13:24 37.373876 -121.942447 317 775ft 81kts
06-Mar-18 13:25 37.391406 -121.962105 317 1481ft 88kts
06-Mar-18 13:26 37.410366 -121.981089 347 2167ft 89kts
06-Mar-18 13:27 37.436017 -121.989215 345 2529ft 119kts
06-Mar-18 13:28 37.469779 -122.000887 345 2516ft 129kts
06-Mar-18 13:29 37.504130 -122.012762 345 2515ft 130kts
06-Mar-18 13:30 37.538513 -122.024656 345 2515ft 130kts
06-Mar-18 13:31 37.572767 -122.036516 345 2515ft 130kts
06-Mar-18 13:32 37.607581 -122.043485 359 2510ft 129kts
06-Mar-18 13:33 37.643205 -122.045974 357 2515ft 129kts
06-Mar-18 13:34 37.676711 -122.038888 27 2515ft 127kts
06-Mar-18 13:35 37.710642 -122.031988 348 2505ft 130kts
06-Mar-18 13:36 37.740832 -122.041985 346 3177ft 106kts
06-Mar-18 13:37 37.774431 -122.053125 345 3037ft 130kts
06-Mar-18 13:38 37.809028 -122.065256 344 3036ft 130kts
06-Mar-18 13:39 37.843799 -122.077618 344 3035ft 130kts
06-Mar-18 13:40 37.877329 -122.093687 339 3036ft 130kts
06-Mar-18 13:41 37.911155 -122.110629 338 3036ft 130kts
06-Mar-18 13:42 37.941450 -122.121965 345 3722ft 100kts
06-Mar-18 13:43 37.965383 -122.130417 345 4480ft 81kts
06-Mar-18 13:44 37.985482 -122.137588 345 5132ft 75kts
06-Mar-18 13:45 38.006283 -122.145008 345 5668ft 83kts
06-Mar-18 13:46 38.029297 -122.153221 345 6184ft 89kts
06-Mar-18 13:47 38.053347 -122.161814 344 6690ft 91kts
06-Mar-18 13:48 38.077573 -122.170482 344 7191ft 90kts
06-Mar-18 13:49 38.101262 -122.178972 344 7683ft 89kts
06-Mar-18 13:50 38.124140 -122.187174 345 8148ft 87kts
06-Mar-18 13:51 38.147662 -122.195606 344 8546ft 91kts
06-Mar-18 13:52 38.171322 -122.204096 344 8929ft 93kts
06-Mar-18 13:53 38.196174 -122.213020 344 9326ft 93kts
06-Mar-18 13:54 38.224820 -122.223390 345 8610ft 158kts
06-Mar-18 13:55 38.261725 -122.236472 345 8531ft 131kts
06-Mar-18 13:56 38.295281 -122.248623 344 8531ft 124kts
06-Mar-18 13:57 38.328453 -122.260593 344 8531ft 124kts
06-Mar-18 13:58 38.361533 -122.272534 344 8531ft 124kts
06-Mar-18 13:59 38.394671 -122.284505 344 8531ft 124kts
06-Mar-18 14:00 38.427605 -122.296412 344 8531ft 124kts
06-Mar-18 14:01 38.460684 -122.308383 344 8531ft 124kts
06-Mar-18 14:02 38.493794 -122.320375 344 8531ft 124kts
06-Mar-18 14:03 38.526935 -122.332391 344 8532ft 124kts
06-Mar-18 14:04 38.559946 -122.344371 344 8532ft 124kts
06-Mar-18 14:05 38.593287 -122.356484 344 8532ft 126kts
06-Mar-18 14:06 38.626803 -122.368675 344 8532ft 126kts
06-Mar-18 14:07 38.660503 -122.380940 344 8532ft 126kts
06-Mar-18 14:08 38.694197 -122.393215 344 8532ft 126kts
06-Mar-18 14:09 38.727771 -122.405457 344 8532ft 126kts
06-Mar-18 14:10 38.761391 -122.417729 344 8532ft 126kts
06-Mar-18 14:11 38.795171 -122.430070 344 8532ft 126kts
06-Mar-18 14:12 38.828854 -122.442388 344 8532ft 126kts
06-Mar-18 14:13 38.862545 -122.454721 344 8532ft 126kts
06-Mar-18 14:14 38.896176 -122.467046 344 8532ft 126kts
06-Mar-18 14:15 38.929891 -122.479410 344 8532ft 126kts
06-Mar-18 14:16 38.963644 -122.491802 344 8532ft 126kts
06-Mar-18 14:17 38.997359 -122.504192 344 8532ft 126kts
06-Mar-18 14:18 39.031119 -122.516611 344 8532ft 126kts
06-Mar-18 14:19 39.064949 -122.529068 344 8532ft 126kts
06-Mar-18 14:20 39.098637 -122.541485 344 8532ft 126kts
06-Mar-18 14:21 39.131820 -122.553725 344 8531ft 126kts
06-Mar-18 14:22 39.165551 -122.566181 344 8531ft 126kts
06-Mar-18 14:23 39.199240 -122.578635 344 8531ft 126kts
06-Mar-18 14:24 39.232898 -122.591090 344 8531ft 126kts
06-Mar-18 14:25 39.266609 -122.603577 344 8531ft 126kts
06-Mar-18 14:26 39.300405 -122.616109 344 8531ft 126kts
06-Mar-18 14:27 39.334004 -122.628578 344 8531ft 126kts
06-Mar-18 14:28 39.367822 -122.641144 344 8531ft 126kts
06-Mar-18 14:29 39.401258 -122.653578 344 8531ft 126kts
06-Mar-18 14:30 39.434925 -122.666113 344 8531ft 126kts
06-Mar-18 14:31 39.468636 -122.678676 344 8531ft 126kts
06-Mar-18 14:32 39.502320 -122.691241 344 8531ft 126kts
06-Mar-18 14:33 39.536094 -122.703852 344 8531ft 126kts
06-Mar-18 14:34 39.569737 -122.716428 344 8531ft 126kts
06-Mar-18 14:35 39.603455 -122.729044 344 8531ft 126kts
06-Mar-18 14:36 39.637126 -122.741655 344 8531ft 126kts
06-Mar-18 14:37 39.670795 -122.754279 344 8531ft 126kts
06-Mar-18 14:38 39.704502 -122.766930 344 8531ft 126kts
06-Mar-18 14:39 39.738151 -122.779572 344 8531ft 126kts
06-Mar-18 14:40 39.771796 -122.792225 344 8531ft 126kts
06-Mar-18 14:41 39.805551 -122.804935 344 8532ft 126kts
06-Mar-18 14:42 39.839248 -122.817633 344 8532ft 126kts
06-Mar-18 14:43 39.872983 -122.830359 344 8532ft 126kts
06-Mar-18 14:44 39.906632 -122.843066 344 8532ft 126kts
06-Mar-18 14:45 39.940372 -122.855821 344 8532ft 126kts
06-Mar-18 14:46 39.973667 -122.868420 344 8532ft 126kts
06-Mar-18 14:47 40.007355 -122.881182 344 8532ft 126kts
06-Mar-18 14:48 40.040891 -122.893900 344 8532ft 126kts
06-Mar-18 14:49 40.074684 -122.906727 344 8532ft 126kts
06-Mar-18 14:50 40.108052 -122.919408 344 8531ft 126kts
06-Mar-18 14:51 40.141654 -122.932191 344 8531ft 126kts
06-Mar-18 14:52 40.175322 -122.945011 344 8531ft 126kts
06-Mar-18 14:53 40.209055 -122.957870 344 8531ft 126kts
06-Mar-18 14:54 40.242793 -122.970744 344 8531ft 126kts
06-Mar-18 14:55 40.276380 -122.983575 344 8531ft 126kts
06-Mar-18 14:56 40.310015 -122.996437 344 8531ft 126kts
06-Mar-18 14:57 40.343657 -123.009315 344 8532ft 126kts
06-Mar-18 14:58 40.377197 -123.022168 344 8540ft 126kts
06-Mar-18 14:59 40.410842 -123.035075 344 8540ft 126kts
06-Mar-18 15:00 40.444460 -123.047986 344 8540ft 126kts
06-Mar-18 15:01 40.478033 -123.060892 344 8540ft 126kts
06-Mar-18 15:02 40.511556 -123.073793 344 8540ft 126kts
06-Mar-18 15:03 40.545258 -123.086777 344 8540ft 126kts
06-Mar-18 15:04 40.578820 -123.099721 344 8541ft 126kts
06-Mar-18 15:05 40.612571 -123.112751 344 8541ft 126kts
06-Mar-18 15:06 40.646182 -123.125742 344 8541ft 126kts
06-Mar-18 15:07 40.679907 -123.138790 344 8541ft 126kts
06-Mar-18 15:08 40.713563 -123.151826 344 8541ft 126kts
06-Mar-18 15:09 40.747193 -123.164866 344 8541ft 126kts
06-Mar-18 15:10 40.780931 -123.177961 344 8541ft 126kts
06-Mar-18 15:11 40.814737 -123.191098 344 8541ft 126kts
06-Mar-18 15:12 40.848383 -123.204175 344 8541ft 126kts
06-Mar-18 15:13 40.876601 -123.214769 344 8540ft 126kts
06-Mar-18 15:14 40.916000 -123.229939 344 8539ft 126kts
06-Mar-18 15:15 40.949774 -123.243087 344 8541ft 126kts
06-Mar-18 15:16 40.977870 -123.254055 344 8541ft 126kts
06-Mar-18 15:17 41.011593 -123.267239 344 8541ft 126kts
06-Mar-18 15:18 41.051066 -123.282691 344 8541ft 126kts
06-Mar-18 15:19 41.079203 -123.293719 344 8541ft 126kts
06-Mar-18 15:20 41.111824 -123.306516 344 8540ft 126kts
06-Mar-18 15:21 41.145513 -123.319745 344 8540ft 126kts
06-Mar-18 15:22 41.179075 -123.332943 344 8540ft 126kts
06-Mar-18 15:23 41.212820 -123.346224 344 8540ft 126kts
06-Mar-18 15:24 41.246480 -123.359486 344 8540ft 126kts
06-Mar-18 15:25 41.280153 -123.372769 344 8540ft 126kts
06-Mar-18 15:26 41.313801 -123.386056 344 8540ft 126kts
06-Mar-18 15:27 41.347500 -123.399380 344 8540ft 126kts
06-Mar-18 15:28 41.381233 -123.412729 344 8540ft 126kts
06-Mar-18 15:29 41.415057 -123.426130 344 8541ft 126kts
06-Mar-18 15:30 41.448706 -123.439477 344 8541ft 126kts
06-Mar-18 15:31 41.482419 -123.452863 344 8541ft 126kts
06-Mar-18 15:32 41.516097 -123.466251 344 8541ft 126kts
06-Mar-18 15:33 41.549764 -123.479649 344 8541ft 126kts
06-Mar-18 15:34 41.583524 -123.493104 344 8541ft 126kts
06-Mar-18 15:35 41.617203 -123.506534 344 8542ft 126kts
06-Mar-18 15:36 41.639913 -123.515435 337 8533ft 124kts
06-Mar-18 15:37 41.672537 -123.528613 338 8534ft 121kts
06-Mar-18 15:38 41.704704 -123.541522 338 8533ft 121kts
06-Mar-18 15:39 41.736995 -123.554465 338 8533ft 121kts
06-Mar-18 15:40 41.769221 -123.567385 338 8533ft 121kts
06-Mar-18 15:41 41.801447 -123.580318 338 8532ft 121kts
06-Mar-18 15:42 41.833715 -123.593281 338 8531ft 121kts
06-Mar-18 15:43 41.865934 -123.606237 338 8530ft 121kts
06-Mar-18 15:44 41.898123 -123.619197 338 8530ft 121kts
06-Mar-18 15:45 41.930272 -123.632153 338 8530ft 121kts
06-Mar-18 15:46 41.962525 -123.645167 338 8532ft 121kts
06-Mar-18 15:47 41.994862 -123.658226 337 8537ft 122kts
06-Mar-18 15:48 42.027378 -123.671370 337 8538ft 122kts
06-Mar-18 15:49 42.059986 -123.684566 337 8540ft 123kts
06-Mar-18 15:50 42.092795 -123.697858 337 8542ft 123kts
06-Mar-18 15:51 42.125145 -123.710977 337 8540ft 123kts
06-Mar-18 15:52 42.157883 -123.724271 337 8541ft 123kts
06-Mar-18 15:53 42.190652 -123.737590 337 8541ft 123kts
06-Mar-18 15:54 42.223356 -123.750897 337 8540ft 123kts
06-Mar-18 15:55 42.256181 -123.764271 337 8541ft 123kts
06-Mar-18 15:56 42.288812 -123.777578 337 8541ft 123kts
06-Mar-18 15:57 42.321617 -123.790968 337 8541ft 123kts
06-Mar-18 15:58 42.354336 -123.804342 337 8542ft 123kts
06-Mar-18 15:59 42.386992 -123.817703 337 8542ft 123kts
06-Mar-18 16:00 42.419810 -123.831145 337 8541ft 123kts
06-Mar-18 16:01 42.452425 -123.844519 337 8541ft 123kts
06-Mar-18 16:02 42.485154 -123.857953 337 8541ft 123kts
06-Mar-18 16:03 42.518692 -123.871749 338 8409ft 130kts
06-Mar-18 16:04 42.553654 -123.886122 338 8215ft 132kts
06-Mar-18 16:05 42.588520 -123.900470 338 8016ft 130kts
06-Mar-18 16:06 42.623023 -123.914698 338 7818ft 129kts
06-Mar-18 16:07 42.657244 -123.928827 338 7620ft 129kts
06-Mar-18 16:08 42.691426 -123.942956 339 7421ft 128kts
06-Mar-18 16:09 42.725508 -123.957056 339 7222ft 128kts
06-Mar-18 16:10 42.759271 -123.971040 339 7024ft 127kts
06-Mar-18 16:11 42.793191 -123.985111 339 6822ft 127kts
06-Mar-18 16:12 42.826900 -123.999105 339 6623ft 127kts
06-Mar-18 16:13 42.860631 -124.013127 339 6422ft 126kts
06-Mar-18 16:14 42.894706 -124.027316 340 6097ft 131kts
06-Mar-18 16:15 42.929680 -124.041885 340 5695ft 132kts
06-Mar-18 16:16 42.964737 -124.056641 340 5294ft 131kts
06-Mar-18 16:17 42.999717 -124.071365 341 4888ft 132kts
06-Mar-18 16:18 43.034721 -124.086000 341 4483ft 132kts
06-Mar-18 16:19 43.069836 -124.100690 341 4083ft 132kts
06-Mar-18 16:20 43.103871 -124.114944 342 3689ft 132kts
06-Mar-18 16:21 43.134301 -124.127648 341 3302ft 114kts
06-Mar-18 16:22 43.163602 -124.139968 341 2969ft 109kts
06-Mar-18 16:23 43.193244 -124.152445 341 2508ft 118kts
06-Mar-18 16:24 43.225462 -124.165981 342 1843ft 120kts
06-Mar-18 16:25 43.256398 -124.179004 342 1439ft 115kts
06-Mar-18 16:26 43.286693 -124.189849 348 1173ft 111kts
06-Mar-18 16:27 43.315643 -124.199142 342 1217ft 102kts
06-Mar-18 16:28 43.344272 -124.210018 352 1093ft 106kts
06-Mar-18 16:29 43.373835 -124.215589 345 1022ft 105kts
06-Mar-18 16:30 43.397382 -124.227789 331 670ft 71kts
06-Mar-18 16:31 43.411578 -124.239639 330 21ft 32kts
06-Mar-18 16:32 43.415052 -124.245495 219 21ft 8kts
06-Mar-18 16:33 43.414997 -124.245496 147 21ft 0kts
06-Mar-18 16:43 43.414997 -124.245496 147 21ft 0kts

Navigation Log

Ident Type
Flight plan parsing failed, navigation log unavailable